createdAt,value
2023-03-19T00:00:46.281Z,88.66
2023-03-19T00:03:13.692Z,88.69
2023-03-19T00:05:41.798Z,88.51
2023-03-19T00:08:08.885Z,88.53
2023-03-19T00:10:39.894Z,88.66
2023-03-19T00:13:07.177Z,88.35
2023-03-19T00:15:34.456Z,88.58
2023-03-19T00:18:02.154Z,88.86
2023-03-19T00:20:29.249Z,90.02
2023-03-19T00:22:56.618Z,89.68
2023-03-19T00:25:24.672Z,90.46
2023-03-19T00:27:52.867Z,91.12
2023-03-19T00:30:22.618Z,90.43
2023-03-19T00:32:51.660Z,90.76
2023-03-19T00:35:18.800Z,90.89
2023-03-19T00:37:45.795Z,90.94
2023-03-19T00:40:13.444Z,91.23
2023-03-19T00:42:41.359Z,91.21
2023-03-19T00:45:09.319Z,91.48
2023-03-19T00:47:36.674Z,92.08
2023-03-19T00:50:04.780Z,91.31
2023-03-19T00:52:31.992Z,91.00
2023-03-19T00:54:59.605Z,91.57
2023-03-19T00:57:27.025Z,91.98
2023-03-19T00:59:54.596Z,91.75
2023-03-19T01:02:22.036Z,92.70
2023-03-19T01:04:49.568Z,92.53
2023-03-19T01:07:16.944Z,92.19
2023-03-19T01:09:44.374Z,92.96
2023-03-19T01:12:11.501Z,93.62
2023-03-19T01:14:38.627Z,93.36
2023-03-19T01:17:06.794Z,93.44
2023-03-19T01:19:34.215Z,93.72
2023-03-19T01:22:01.359Z,94.43
2023-03-19T01:24:33.894Z,94.48
2023-03-19T01:27:01.184Z,94.62
2023-03-19T01:29:28.893Z,94.78
2023-03-19T01:31:57.320Z,94.36
2023-03-19T01:34:24.899Z,96.00
2023-03-19T01:36:52.636Z,96.06
2023-03-19T01:39:20.208Z,96.20
2023-03-19T01:41:47.530Z,95.53
2023-03-19T01:44:33.779Z,94.99
2023-03-19T01:47:04.609Z,95.13
2023-03-19T01:49:32.344Z,95.79
2023-03-19T01:52:03.426Z,95.61
2023-03-19T01:54:32.024Z,96.45
2023-03-19T01:57:12.167Z,96.29
2023-03-19T01:59:47.761Z,96.83
2023-03-19T02:02:31.298Z,96.13
2023-03-19T02:05:25.470Z,96.11
2023-03-19T02:08:05.731Z,95.46
2023-03-19T02:10:34.254Z,95.66
2023-03-19T02:13:01.576Z,95.68
2023-03-19T02:15:28.880Z,95.68
2023-03-19T02:17:56.373Z,96.05
2023-03-19T02:20:27.142Z,96.28
2023-03-19T02:23:01.091Z,96.09
2023-03-19T02:25:33.144Z,96.96
2023-03-19T02:28:01.524Z,96.99
2023-03-19T02:30:33.081Z,97.22
2023-03-19T02:33:01.214Z,97.53
2023-03-19T02:35:32.288Z,97.36
2023-03-19T02:38:01.090Z,97.65
2023-03-19T02:40:36.970Z,97.70
2023-03-19T02:43:06.482Z,97.66
2023-03-19T02:45:33.829Z,97.79
2023-03-19T02:48:01.143Z,98.03
2023-03-19T02:50:28.214Z,97.78
2023-03-19T02:52:55.623Z,97.27
2023-03-19T02:55:22.830Z,95.55
2023-03-19T02:57:49.824Z,95.82
2023-03-19T03:00:18.854Z,96.37
2023-03-19T03:02:46.141Z,95.78
2023-03-19T03:05:14.401Z,94.85
2023-03-19T03:07:43.822Z,94.81
2023-03-19T03:10:11.794Z,95.49
2023-03-19T03:12:38.942Z,95.94
2023-03-19T03:15:07.244Z,96.43
2023-03-19T03:17:38.878Z,95.15
2023-03-19T03:20:07.823Z,95.79
2023-03-19T03:22:35.744Z,97.08
2023-03-19T03:25:03.100Z,98.20
2023-03-19T03:27:30.481Z,98.53
2023-03-19T03:29:57.697Z,99.16
2023-03-19T03:32:25.095Z,100.00
2023-03-19T03:34:54.729Z,100.00
2023-03-19T03:37:21.883Z,100.00
2023-03-19T03:39:48.949Z,100.00
2023-03-19T03:42:16.696Z,100.00
2023-03-19T03:44:43.739Z,100.00
2023-03-19T03:47:11.457Z,100.00
2023-03-19T03:49:38.821Z,100.00
2023-03-19T03:52:06.372Z,100.00
2023-03-19T03:54:33.511Z,100.00
2023-03-19T03:57:03.317Z,100.00
2023-03-19T03:59:31.164Z,100.00
2023-03-19T04:01:58.354Z,100.00
2023-03-19T04:04:26.604Z,100.00
2023-03-19T04:06:53.923Z,100.00
2023-03-19T04:09:24.658Z,100.00
2023-03-19T04:11:52.010Z,100.00
2023-03-19T04:14:19.048Z,100.00
2023-03-19T04:16:47.217Z,100.00
2023-03-19T04:19:14.629Z,100.00
2023-03-19T04:21:41.689Z,100.00
2023-03-19T04:24:10.724Z,100.00
2023-03-19T04:26:38.551Z,100.00
2023-03-19T04:29:06.100Z,100.00
2023-03-19T04:31:33.888Z,100.00
2023-03-19T04:34:01.291Z,100.00
2023-03-19T04:36:28.646Z,100.00
2023-03-19T04:38:55.897Z,100.00
2023-03-19T04:41:23.648Z,100.00
2023-03-19T04:43:51.299Z,100.00
2023-03-19T04:46:18.420Z,100.00
2023-03-19T04:48:47.350Z,100.00
2023-03-19T04:51:14.980Z,100.00
2023-03-19T04:53:42.166Z,100.00
2023-03-19T04:56:09.730Z,100.00
2023-03-19T04:58:36.830Z,100.00
2023-03-19T05:01:04.531Z,100.00
2023-03-19T05:03:34.238Z,100.00
2023-03-19T05:06:01.398Z,100.00
2023-03-19T05:08:28.755Z,100.00
2023-03-19T05:10:56.078Z,100.00
2023-03-19T05:13:25.742Z,100.00
2023-03-19T05:15:55.300Z,100.00
2023-03-19T05:18:23.262Z,100.00
2023-03-19T05:20:50.313Z,100.00
2023-03-19T05:23:18.026Z,100.00
2023-03-19T05:25:46.430Z,100.00
2023-03-19T05:28:14.956Z,100.00
2023-03-19T05:30:43.265Z,100.00
2023-03-19T05:33:11.682Z,100.00
2023-03-19T05:35:39.818Z,98.87
2023-03-19T05:38:08.137Z,99.27
2023-03-19T05:40:36.751Z,98.72
2023-03-19T05:43:04.802Z,96.37
2023-03-19T05:45:31.844Z,96.46
2023-03-19T05:48:01.525Z,95.89
2023-03-19T05:50:31.680Z,95.94
2023-03-19T05:53:02.977Z,93.62
2023-03-19T05:55:30.557Z,94.52
2023-03-19T05:57:58.080Z,93.05
2023-03-19T06:00:25.689Z,93.05
2023-03-19T06:02:54.779Z,92.58
2023-03-19T06:05:23.403Z,92.47
2023-03-19T06:07:51.063Z,91.21
2023-03-19T06:10:19.890Z,90.41
2023-03-19T06:12:48.105Z,89.63
2023-03-19T06:15:17.001Z,89.99
2023-03-19T06:17:48.572Z,88.37
2023-03-19T06:20:16.507Z,87.92
2023-03-19T06:22:44.334Z,87.75
2023-03-19T06:25:12.135Z,87.46
2023-03-19T06:27:39.226Z,87.53
2023-03-19T06:30:07.403Z,85.72
2023-03-19T06:32:35.307Z,84.31
2023-03-19T06:35:03.496Z,84.56
2023-03-19T06:37:30.579Z,84.16
2023-03-19T06:39:58.095Z,82.68
2023-03-19T06:42:25.242Z,83.37
2023-03-19T06:44:53.745Z,82.71
2023-03-19T06:47:21.190Z,81.72
2023-03-19T06:49:48.382Z,80.93
2023-03-19T06:52:15.602Z,80.02
2023-03-19T06:54:43.857Z,80.41
2023-03-19T06:57:12.334Z,80.35
2023-03-19T06:59:39.392Z,77.83
2023-03-19T07:02:08.401Z,78.55
2023-03-19T07:04:36.706Z,77.99
2023-03-19T07:07:05.824Z,76.77
2023-03-19T07:09:33.204Z,77.96
2023-03-19T07:12:00.348Z,78.68
2023-03-19T07:14:28.022Z,79.12
2023-03-19T07:16:55.951Z,79.16
2023-03-19T07:19:23.185Z,78.43
2023-03-19T07:21:50.593Z,79.93
2023-03-19T07:24:17.947Z,78.79
2023-03-19T07:26:45.039Z,77.73
2023-03-19T07:29:12.116Z,79.27
2023-03-19T07:31:39.886Z,77.00
2023-03-19T07:34:07.090Z,76.29
2023-03-19T07:36:34.079Z,77.07
2023-03-19T07:39:01.434Z,76.67
2023-03-19T07:41:28.441Z,75.56
2023-03-19T07:43:55.490Z,74.59
2023-03-19T07:46:23.475Z,75.64
2023-03-19T07:48:50.501Z,74.85
2023-03-19T07:51:17.550Z,72.72
2023-03-19T07:53:44.832Z,74.67
2023-03-19T07:56:12.521Z,72.65
2023-03-19T07:58:40.256Z,73.86
2023-03-19T08:01:08.353Z,71.00
2023-03-19T08:03:35.730Z,70.57
2023-03-19T08:06:03.933Z,72.20
2023-03-19T08:08:31.254Z,67.98
2023-03-19T08:10:58.578Z,68.50
2023-03-19T08:13:25.628Z,68.62
2023-03-19T08:15:53.571Z,66.68
2023-03-19T08:18:20.870Z,66.15
2023-03-19T08:20:47.984Z,66.27
2023-03-19T08:23:17.680Z,65.78
2023-03-19T08:25:45.093Z,64.63
2023-03-19T08:28:12.596Z,65.99
2023-03-19T08:30:40.402Z,65.97
2023-03-19T08:33:08.766Z,62.00
2023-03-19T08:35:35.985Z,64.32
2023-03-19T08:38:03.012Z,64.64
2023-03-19T08:40:30.508Z,62.91
2023-03-19T08:42:57.507Z,62.43
2023-03-19T08:45:24.703Z,60.12
2023-03-19T08:47:52.366Z,60.63
2023-03-19T08:50:19.708Z,60.35
2023-03-19T08:52:46.951Z,59.87
2023-03-19T08:55:14.485Z,60.28
2023-03-19T08:57:41.646Z,60.33
2023-03-19T09:00:09.527Z,58.97
2023-03-19T09:02:37.059Z,58.45
2023-03-19T09:05:04.297Z,56.34
2023-03-19T09:07:31.307Z,55.88
2023-03-19T09:09:58.671Z,56.82
2023-03-19T09:12:26.117Z,55.52
2023-03-19T09:14:53.097Z,54.73
2023-03-19T09:17:20.678Z,55.59
2023-03-19T09:19:47.734Z,54.60
2023-03-19T09:22:14.752Z,54.65
2023-03-19T09:24:42.122Z,54.37
2023-03-19T09:27:10.140Z,55.39
2023-03-19T09:29:37.125Z,53.91
2023-03-19T09:32:04.618Z,53.56
2023-03-19T09:34:31.625Z,54.70
2023-03-19T09:36:58.685Z,53.19
2023-03-19T09:39:26.304Z,52.37
2023-03-19T09:42:21.080Z,54.48
2023-03-19T09:44:48.450Z,52.29
2023-03-19T09:47:33.265Z,52.70
2023-03-19T09:50:05.241Z,52.27
2023-03-19T09:52:44.519Z,53.46
2023-03-19T09:55:40.745Z,52.32
2023-03-19T09:58:14.978Z,51.32
2023-03-19T10:00:43.231Z,50.53
2023-03-19T10:03:25.975Z,49.64
2023-03-19T10:05:59.443Z,50.94
2023-03-19T10:09:01.026Z,50.26
2023-03-19T10:11:32.573Z,49.65
2023-03-19T10:14:14.592Z,50.04
2023-03-19T10:16:43.384Z,49.70
2023-03-19T10:19:14.757Z,49.98
2023-03-19T10:21:45.079Z,49.28
2023-03-19T10:24:33.356Z,48.75
2023-03-19T10:27:14.021Z,49.80
2023-03-19T10:29:41.500Z,51.22
2023-03-19T10:32:21.399Z,49.24
2023-03-19T10:34:50.990Z,48.42
2023-03-19T10:37:23.053Z,48.27
2023-03-19T10:39:52.326Z,49.19
2023-03-19T10:42:37.956Z,48.28
2023-03-19T10:45:39.166Z,49.27
2023-03-19T10:48:06.835Z,46.61
2023-03-19T10:50:59.123Z,46.43
2023-03-19T10:53:34.943Z,47.76
2023-03-19T10:56:22.930Z,48.41
2023-03-19T10:59:04.408Z,46.57
2023-03-19T11:01:41.923Z,46.77
2023-03-19T11:04:21.702Z,47.35
2023-03-19T11:06:54.270Z,46.24
2023-03-19T11:09:32.767Z,48.12
2023-03-19T11:12:23.110Z,45.95
2023-03-19T11:14:51.793Z,45.93
2023-03-19T11:17:43.244Z,48.02
2023-03-19T11:20:24.035Z,47.12
2023-03-19T11:22:53.041Z,46.24
2023-03-19T11:25:40.723Z,43.97
2023-03-19T11:28:12.706Z,44.80
2023-03-19T11:30:56.511Z,48.22
2023-03-19T11:34:06.516Z,46.21
2023-03-19T11:36:42.516Z,48.56
2023-03-19T11:39:24.312Z,45.48
2023-03-19T11:42:17.565Z,43.88
2023-03-19T11:45:02.267Z,43.23
2023-03-19T11:47:52.110Z,45.34
2023-03-19T11:50:25.366Z,43.42
2023-03-19T11:53:10.974Z,43.90
2023-03-19T11:55:42.273Z,42.25
2023-03-19T11:58:34.741Z,42.74
2023-03-19T12:01:25.325Z,43.94
2023-03-19T12:04:01.750Z,42.46
2023-03-19T12:06:35.004Z,42.62
2023-03-19T12:09:07.412Z,41.90
2023-03-19T12:11:59.979Z,43.28
2023-03-19T12:15:15.008Z,41.65
2023-03-19T12:17:51.464Z,41.95
2023-03-19T12:20:38.260Z,44.42
2023-03-19T12:23:31.044Z,44.31
2023-03-19T12:26:19.178Z,44.85
2023-03-19T12:29:08.469Z,43.75
2023-03-19T12:31:39.009Z,43.69
2023-03-19T12:34:14.843Z,42.58
2023-03-19T12:36:52.692Z,42.95
2023-03-19T12:39:33.585Z,43.46
2023-03-19T12:42:02.835Z,44.53
2023-03-19T12:44:40.771Z,45.12
2023-03-19T12:47:16.837Z,43.25
2023-03-19T12:50:05.490Z,41.41
2023-03-19T12:52:39.062Z,41.65
2023-03-19T12:55:18.804Z,44.59
2023-03-19T12:57:51.249Z,41.26
2023-03-19T13:00:21.674Z,42.14
2023-03-19T13:02:59.434Z,42.01
2023-03-19T13:05:41.613Z,42.13
2023-03-19T13:08:35.549Z,43.69
2023-03-19T13:11:06.820Z,41.92
2023-03-19T13:13:50.473Z,43.10
2023-03-19T13:16:26.666Z,42.97
2023-03-19T13:19:05.792Z,43.04
2023-03-19T13:21:34.978Z,43.27
2023-03-19T13:24:16.411Z,45.03
2023-03-19T13:26:45.721Z,44.02
2023-03-19T13:29:18.036Z,43.62
2023-03-19T13:31:46.400Z,44.91
2023-03-19T13:34:16.811Z,44.41
2023-03-19T13:37:00.190Z,45.50
2023-03-19T13:39:30.319Z,44.74
2023-03-19T13:42:17.438Z,44.36
2023-03-19T13:45:04.895Z,43.87
2023-03-19T13:47:37.808Z,45.01
2023-03-19T13:50:20.447Z,44.07
2023-03-19T13:52:50.598Z,43.36
2023-03-19T13:55:33.015Z,41.59
2023-03-19T13:58:12.555Z,41.71
2023-03-19T14:00:43.002Z,39.27
2023-03-19T14:03:20.627Z,39.64
2023-03-19T14:05:49.255Z,40.68
2023-03-19T14:08:20.810Z,38.79
2023-03-19T14:10:53.616Z,38.32
2023-03-19T14:13:28.401Z,39.68
2023-03-19T14:16:14.492Z,38.76
2023-03-19T14:18:44.104Z,39.79
2023-03-19T14:21:16.544Z,39.03
2023-03-19T14:23:53.299Z,40.79
2023-03-19T14:26:23.541Z,40.33
2023-03-19T14:29:07.371Z,40.21
2023-03-19T14:31:53.711Z,41.41
2023-03-19T14:34:32.573Z,41.19
2023-03-19T14:37:15.377Z,40.50
2023-03-19T14:39:43.774Z,42.33
2023-03-19T14:42:30.576Z,41.33
2023-03-19T14:45:14.479Z,40.23
2023-03-19T14:48:21.543Z,40.61
2023-03-19T14:51:08.124Z,41.92
2023-03-19T14:53:44.418Z,38.66
2023-03-19T14:56:19.504Z,36.82
2023-03-19T14:58:50.805Z,37.78
2023-03-19T15:01:18.877Z,37.44
2023-03-19T15:03:46.125Z,39.36
2023-03-19T15:06:15.128Z,38.67
2023-03-19T15:08:43.072Z,39.19
2023-03-19T15:11:25.663Z,38.73
2023-03-19T15:14:19.173Z,39.51
2023-03-19T15:17:21.605Z,38.24
2023-03-19T15:19:49.296Z,38.89
2023-03-19T15:22:22.144Z,39.57
2023-03-19T15:24:49.698Z,39.80
2023-03-19T15:27:27.231Z,40.21
2023-03-19T15:30:03.222Z,39.81
2023-03-19T15:32:56.482Z,40.88
2023-03-19T15:35:35.018Z,40.70
2023-03-19T15:38:07.847Z,42.33
2023-03-19T15:40:36.610Z,42.21
2023-03-19T15:43:04.129Z,42.31
2023-03-19T15:45:33.792Z,43.17
2023-03-19T15:48:27.053Z,43.85
2023-03-19T15:50:59.090Z,43.17
2023-03-19T15:53:28.916Z,43.40
2023-03-19T15:55:56.408Z,42.69
2023-03-19T15:58:27.339Z,43.83
2023-03-19T16:00:55.994Z,45.17
2023-03-19T16:03:30.191Z,44.91
2023-03-19T16:06:07.318Z,44.42
2023-03-19T16:08:35.021Z,43.00
2023-03-19T16:11:16.109Z,43.62
2023-03-19T16:13:54.778Z,44.34
2023-03-19T16:16:22.642Z,43.96
2023-03-19T16:18:53.158Z,44.18
2023-03-19T16:21:29.680Z,44.41
2023-03-19T16:24:03.441Z,45.49
2023-03-19T16:26:37.504Z,44.97
2023-03-19T16:29:24.689Z,44.97
2023-03-19T16:32:03.261Z,45.72
2023-03-19T16:34:34.235Z,45.81
2023-03-19T16:37:01.483Z,45.87
2023-03-19T16:39:35.810Z,46.21
2023-03-19T16:42:08.892Z,47.36
2023-03-19T16:44:40.433Z,47.33
2023-03-19T16:47:11.619Z,47.05
2023-03-19T16:49:38.793Z,47.60
2023-03-19T16:52:07.123Z,48.28
2023-03-19T16:54:34.485Z,47.75
2023-03-19T16:57:01.828Z,47.98
2023-03-19T16:59:29.927Z,48.43
2023-03-19T17:01:57.693Z,48.31
2023-03-19T17:04:24.922Z,48.28
2023-03-19T17:06:52.074Z,48.13
2023-03-19T17:09:19.473Z,48.15
2023-03-19T17:11:46.852Z,48.42
2023-03-19T17:14:18.156Z,47.78
2023-03-19T17:16:50.592Z,48.17
2023-03-19T17:19:22.190Z,48.37
2023-03-19T17:21:52.788Z,48.10
2023-03-19T17:24:27.349Z,48.26
2023-03-19T17:26:57.134Z,49.02
2023-03-19T17:29:25.496Z,49.21
2023-03-19T17:31:53.836Z,49.40
2023-03-19T17:34:25.668Z,50.12
2023-03-19T17:36:57.556Z,50.70
2023-03-19T17:39:26.162Z,51.24
2023-03-19T17:41:56.404Z,51.49
2023-03-19T17:44:23.872Z,51.69
2023-03-19T17:46:53.282Z,52.14
2023-03-19T17:49:34.013Z,52.20
2023-03-19T17:52:01.658Z,52.36
2023-03-19T17:54:28.995Z,51.70
2023-03-19T17:56:56.375Z,51.37
2023-03-19T17:59:24.035Z,51.78
2023-03-19T18:01:52.105Z,51.88
2023-03-19T18:04:21.049Z,51.79
2023-03-19T18:06:55.552Z,52.09
2023-03-19T18:09:25.892Z,52.74
2023-03-19T18:11:53.162Z,52.76
2023-03-19T18:14:20.815Z,52.99
2023-03-19T18:16:48.521Z,52.25
2023-03-19T18:19:21.656Z,52.34
2023-03-19T18:21:49.094Z,52.08
2023-03-19T18:24:16.232Z,51.71
2023-03-19T18:26:43.476Z,51.78
2023-03-19T18:29:11.001Z,51.87
2023-03-19T18:31:38.564Z,52.01
2023-03-19T18:34:09.058Z,51.74
2023-03-19T18:36:36.647Z,52.24
2023-03-19T18:39:06.027Z,51.65
2023-03-19T18:41:33.324Z,52.29
2023-03-19T18:44:04.747Z,52.00
2023-03-19T18:46:33.012Z,51.85
2023-03-19T18:49:23.911Z,52.44
2023-03-19T18:52:02.005Z,51.99
2023-03-19T18:54:30.945Z,51.98
2023-03-19T18:57:00.407Z,51.25
2023-03-19T18:59:30.821Z,51.52
2023-03-19T19:02:11.595Z,51.66
2023-03-19T19:04:38.751Z,51.65
2023-03-19T19:07:07.067Z,51.49
2023-03-19T19:09:34.399Z,51.61
2023-03-19T19:12:02.034Z,51.16
2023-03-19T19:14:29.426Z,50.99
2023-03-19T19:16:57.066Z,51.05
2023-03-19T19:19:25.653Z,50.94
2023-03-19T19:21:53.371Z,51.31
2023-03-19T19:24:21.174Z,51.00
2023-03-19T19:26:54.287Z,50.71
2023-03-19T19:29:27.057Z,50.94
2023-03-19T19:31:54.789Z,50.81
2023-03-19T19:34:23.290Z,51.08
2023-03-19T19:36:51.009Z,51.10
2023-03-19T19:39:18.398Z,50.92
2023-03-19T19:41:46.691Z,50.82
2023-03-19T19:44:18.136Z,51.21
2023-03-19T19:46:45.804Z,51.28
2023-03-19T19:49:15.127Z,51.05
2023-03-19T19:51:42.323Z,51.76
2023-03-19T19:54:09.716Z,51.26
2023-03-19T19:56:39.185Z,51.64
2023-03-19T19:59:06.945Z,52.11
2023-03-19T20:01:34.464Z,51.50
2023-03-19T20:04:03.962Z,51.84
2023-03-19T20:06:31.618Z,52.05
2023-03-19T20:08:58.592Z,52.17
2023-03-19T20:11:27.721Z,51.90
2023-03-19T20:13:56.044Z,51.94
2023-03-19T20:16:25.589Z,52.21
2023-03-19T20:18:54.808Z,52.93
2023-03-19T20:21:23.110Z,52.91
2023-03-19T20:23:55.146Z,52.44
2023-03-19T20:26:23.821Z,52.71
2023-03-19T20:28:51.539Z,53.23
2023-03-19T20:31:29.808Z,53.12
2023-03-19T20:33:57.832Z,53.46
2023-03-19T20:36:26.657Z,53.23
2023-03-19T20:38:54.094Z,53.56
2023-03-19T20:41:27.046Z,53.57
2023-03-19T20:43:54.733Z,53.86
2023-03-19T20:46:23.214Z,53.84
2023-03-19T20:48:50.662Z,54.55
2023-03-19T20:51:21.508Z,54.23
2023-03-19T20:53:51.245Z,54.92
2023-03-19T20:56:21.872Z,55.33
2023-03-19T20:58:49.724Z,55.36
2023-03-19T21:01:17.917Z,55.69
2023-03-19T21:03:45.329Z,56.00
2023-03-19T21:06:18.553Z,55.97
2023-03-19T21:08:48.118Z,56.38
2023-03-19T21:11:20.558Z,56.25
2023-03-19T21:13:49.886Z,56.32
2023-03-19T21:16:25.710Z,56.66
2023-03-19T21:18:53.953Z,56.51
2023-03-19T21:21:29.903Z,56.68
2023-03-19T21:23:58.520Z,56.71
2023-03-19T21:26:26.156Z,57.18
2023-03-19T21:29:05.836Z,57.30
2023-03-19T21:31:33.550Z,57.61
2023-03-19T21:34:01.265Z,57.57
2023-03-19T21:36:29.049Z,57.41
2023-03-19T21:38:57.269Z,57.41
2023-03-19T21:41:32.836Z,57.50
2023-03-19T21:44:04.252Z,57.13
2023-03-19T21:46:32.421Z,57.33
2023-03-19T21:48:59.755Z,57.31
2023-03-19T21:51:28.559Z,57.48
2023-03-19T21:53:56.073Z,58.00
2023-03-19T21:56:24.581Z,57.77
2023-03-19T21:58:52.358Z,57.71
2023-03-19T22:01:24.311Z,57.73
2023-03-19T22:03:55.760Z,58.18
2023-03-19T22:06:23.002Z,57.96
2023-03-19T22:08:51.187Z,58.04
2023-03-19T22:11:23.189Z,58.02
2023-03-19T22:13:50.384Z,57.71
2023-03-19T22:16:20.120Z,57.48
2023-03-19T22:18:47.938Z,58.29
2023-03-19T22:21:17.839Z,57.83
2023-03-19T22:23:46.438Z,57.79
2023-03-19T22:26:31.527Z,58.46
2023-03-19T22:29:01.404Z,58.11
2023-03-19T22:31:29.271Z,57.81
2023-03-19T22:33:56.582Z,58.40
2023-03-19T22:36:23.673Z,58.42
2023-03-19T22:38:51.783Z,58.15
2023-03-19T22:41:31.083Z,58.16
2023-03-19T22:43:59.177Z,58.23
2023-03-19T22:46:26.527Z,58.02
2023-03-19T22:48:53.708Z,58.58
2023-03-19T22:51:23.904Z,58.65
2023-03-19T22:53:51.410Z,58.65
2023-03-19T22:56:21.712Z,58.45
2023-03-19T22:58:49.960Z,58.34
2023-03-19T23:01:23.184Z,58.22
2023-03-19T23:03:53.053Z,58.18
2023-03-19T23:06:30.496Z,58.59
2023-03-19T23:08:58.441Z,58.38
2023-03-19T23:11:25.601Z,58.06
2023-03-19T23:13:55.324Z,57.98
2023-03-19T23:16:24.980Z,57.70
2023-03-19T23:18:52.488Z,58.04
2023-03-19T23:21:21.778Z,58.04
2023-03-19T23:23:49.698Z,58.08
2023-03-19T23:26:30.185Z,58.33
2023-03-19T23:29:03.570Z,58.36
2023-03-19T23:31:31.517Z,58.72
2023-03-19T23:33:58.852Z,58.95
2023-03-19T23:36:26.802Z,58.76
2023-03-19T23:38:53.834Z,58.73
2023-03-19T23:41:25.576Z,58.71
2023-03-19T23:43:53.399Z,59.24
2023-03-19T23:46:21.153Z,59.42
2023-03-19T23:48:48.536Z,59.15
2023-03-19T23:51:16.737Z,59.33
2023-03-19T23:53:44.285Z,59.10
2023-03-19T23:56:23.002Z,59.22
2023-03-19T23:58:52.010Z,59.44
